Time;durP1;ratioP1;P1;durP2;ratioP2;P2;SDS_P1;SDS_P2;PMS_P1;PMS_P2;Temp;Humidity;BMP_temperature;BMP_pressure;BME280_temperature;BME280_humidity;BME280_pressure;Samples;Min_cycle;Max_cycle;Signal;HPM_P1;HPM_P2
2021/03/31 00:02:17;;;;;;;5.47;4.07;;;11.30;48.50;;;;;;5042736;28;20487;-88
2021/03/31 00:04:42;;;;;;;5.80;4.28;;;11.30;48.60;;;;;;5031782;28;20026;-87
2021/03/31 00:07:10;;;;;;;7.32;4.50;;;11.30;49.10;;;;;;5034715;28;20113;-88
2021/03/31 00:09:36;;;;;;;7.68;4.20;;;11.30;49.10;;;;;;5033913;28;20125;-88
2021/03/31 00:12:03;;;;;;;6.38;4.05;;;11.30;49.30;;;;;;5035695;28;20025;-87
2021/03/31 00:14:29;;;;;;;10.75;5.05;;;11.20;49.60;;;;;;5036364;28;20472;-87
2021/03/31 00:16:54;;;;;;;10.48;4.80;;;11.20;49.20;;;;;;5029037;28;20037;-87
2021/03/31 00:19:20;;;;;;;7.80;4.75;;;11.20;49.20;;;;;;5038178;28;20495;-87
2021/03/31 00:21:45;;;;;;;7.88;4.32;;;11.10;49.50;;;;;;5047409;28;20029;-88
2021/03/31 00:24:11;;;;;;;7.82;4.50;;;11.00;49.30;;;;;;5035736;28;20366;-87
2021/03/31 00:26:37;;;;;;;5.35;4.10;;;11.00;49.70;;;;;;5045816;28;20043;-88
2021/03/31 00:29:02;;;;;;;6.53;4.05;;;10.90;49.50;;;;;;5038728;28;20032;-88
2021/03/31 00:31:28;;;;;;;7.57;4.65;;;10.90;49.70;;;;;;5034885;28;20052;-87
2021/03/31 00:33:53;;;;;;;8.77;4.22;;;10.90;49.30;;;;;;5037054;28;20033;-86
2021/03/31 00:36:19;;;;;;;9.00;4.43;;;10.80;49.50;;;;;;5034090;28;20033;-88
2021/03/31 00:38:45;;;;;;;9.07;4.60;;;10.80;49.70;;;;;;5038256;28;20281;-87
2021/03/31 00:41:10;;;;;;;6.70;4.63;;;10.70;49.60;;;;;;5036101;28;20068;-87
2021/03/31 00:43:36;;;;;;;6.88;4.63;;;10.70;49.90;;;;;;5036980;28;20025;-88
2021/03/31 00:46:02;;;;;;;5.82;4.32;;;10.70;49.80;;;;;;5038654;28;20399;-87
2021/03/31 00:48:27;;;;;;;7.75;4.60;;;10.60;49.70;;;;;;5035707;28;20021;-87
2021/03/31 00:50:56;;;;;;;10.75;4.70;;;10.50;49.70;;;;;;5040435;28;20040;-88
2021/03/31 00:53:27;;;;;;;7.40;4.70;;;10.50;49.90;;;;;;5033587;28;20400;-87
2021/03/31 00:55:54;;;;;;;9.80;4.85;;;10.40;49.90;;;;;;5026362;28;20104;-89
2021/03/31 00:58:20;;;;;;;9.02;5.20;;;10.40;49.90;;;;;;5034526;28;20053;-87
2021/03/31 01:00:46;;;;;;;10.13;4.47;;;10.40;50.40;;;;;;5036327;28;20467;-87
2021/03/31 01:03:12;;;;;;;7.90;4.13;;;10.30;50.50;;;;;;5036828;28;20040;-88
2021/03/31 01:05:37;;;;;;;9.02;4.70;;;10.20;50.30;;;;;;5035501;28;20417;-87
2021/03/31 01:08:03;;;;;;;8.82;4.82;;;10.20;50.40;;;;;;5036508;28;20376;-87
2021/03/31 01:10:33;;;;;;;8.80;4.72;;;10.10;51.40;;;;;;5036316;28;20021;-87
2021/03/31 01:13:26;;;;;;;7.80;5.03;;;10.10;50.80;;;;;;5035968;28;20053;-87
2021/03/31 01:15:57;;;;;;;8.57;4.88;;;10.00;50.70;;;;;;5037964;28;20040;-87
2021/03/31 01:19:01;;;;;;;8.52;5.15;;;9.90;50.50;;;;;;5038880;28;20471;-88
2021/03/31 01:22:04;;;;;;;8.55;4.63;;;9.80;50.50;;;;;;4972333;28;20113;-87
2021/03/31 01:24:40;;;;;;;11.57;4.85;;;9.70;50.80;;;;;;5034459;28;20026;-87
2021/03/31 01:27:35;;;;;;;10.52;5.13;;;9.70;51.00;;;;;;5039725;28;20049;-87
2021/03/31 01:30:25;;;;;;;12.77;5.10;;;9.60;51.10;;;;;;5042042;28;20053;-86
2021/03/31 01:33:23;;;;;;;8.63;4.90;;;9.50;50.90;;;;;;5040510;28;20032;-85
2021/03/31 01:35:51;;;;;;;7.80;4.05;;;9.40;50.90;;;;;;5047721;28;20029;-86
2021/03/31 01:38:21;;;;;;;8.10;4.88;;;9.30;51.10;;;;;;5041602;28;20085;-86
2021/03/31 01:40:53;;;;;;;7.55;4.72;;;9.20;51.40;;;;;;5042516;28;20029;-86
2021/03/31 01:43:22;;;;;;;9.53;4.40;;;9.10;51.60;;;;;;5042256;28;20502;-87
2021/03/31 01:45:51;;;;;;;11.20;4.60;;;9.10;51.50;;;;;;5028598;28;20071;-86
2021/03/31 01:48:20;;;;;;;7.57;4.63;;;9.10;51.70;;;;;;5044940;28;20064;-85
2021/03/31 01:50:50;;;;;;;9.75;5.15;;;9.20;52.10;;;;;;5039687;28;20100;-85
2021/03/31 01:53:18;;;;;;;7.40;4.68;;;9.10;52.20;;;;;;5053536;28;20143;-86
2021/03/31 01:55:44;;;;;;;6.38;4.20;;;9.20;52.00;;;;;;5056152;28;20033;-87
2021/03/31 01:58:11;;;;;;;11.02;5.22;;;9.20;52.20;;;;;;5042543;28;20037;-86
2021/03/31 02:00:37;;;;;;;9.02;4.45;;;9.30;52.20;;;;;;5041796;28;20037;-87
2021/03/31 02:03:02;;;;;;;7.25;4.60;;;9.30;52.40;;;;;;5043136;28;20064;-87
2021/03/31 02:05:29;;;;;;;7.18;4.28;;;9.30;52.40;;;;;;5040931;28;20373;-87
2021/03/31 02:07:56;;;;;;;6.97;4.35;;;9.30;52.10;;;;;;5033666;28;20763;-86
2021/03/31 02:10:23;;;;;;;8.88;5.10;;;9.30;52.10;;;;;;5035631;28;20026;-88
2021/03/31 02:12:50;;;;;;;9.18;5.10;;;9.20;52.00;;;;;;5041992;28;20108;-85
2021/03/31 02:15:21;;;;;;;7.10;4.55;;;9.10;52.00;;;;;;5041553;28;20041;-86
2021/03/31 02:17:49;;;;;;;8.98;5.07;;;9.10;52.20;;;;;;5025131;28;20032;-86
2021/03/31 02:20:18;;;;;;;7.22;4.35;;;9.00;52.30;;;;;;5050997;28;20482;-85
2021/03/31 02:22:46;;;;;;;6.82;4.32;;;9.00;52.80;;;;;;5040342;28;20030;-87
2021/03/31 02:25:13;;;;;;;9.90;4.53;;;8.90;53.30;;;;;;5044387;28;20093;-87
2021/03/31 02:27:39;;;;;;;6.20;4.28;;;9.00;53.00;;;;;;5048719;28;20081;-87
2021/03/31 02:30:07;;;;;;;7.88;5.15;;;9.00;52.80;;;;;;5053738;28;20025;-87
2021/03/31 02:32:34;;;;;;;8.38;5.03;;;8.90;52.90;;;;;;5041472;28;20040;-86
2021/03/31 02:35:01;;;;;;;10.32;4.63;;;8.90;52.90;;;;;;5042402;28;20040;-87
2021/03/31 02:37:27;;;;;;;8.68;4.70;;;8.80;53.00;;;;;;5043985;28;20026;-86
2021/03/31 02:39:54;;;;;;;7.13;4.75;;;8.70;53.00;;;;;;5043616;28;20041;-86
2021/03/31 02:42:22;;;;;;;7.65;4.85;;;8.70;53.00;;;;;;5042378;28;20033;-84
2021/03/31 02:44:50;;;;;;;7.82;4.88;;;8.60;53.10;;;;;;5038583;28;20030;-87
2021/03/31 02:47:18;;;;;;;7.80;4.55;;;8.50;53.00;;;;;;5041947;28;20021;-86
2021/03/31 02:49:48;;;;;;;7.60;4.93;;;8.50;53.10;;;;;;5051453;28;20088;-86
2021/03/31 02:52:16;;;;;;;6.95;4.80;;;8.40;53.30;;;;;;5043696;28;20101;-85
2021/03/31 02:54:43;;;;;;;9.15;4.78;;;8.40;53.40;;;;;;5038532;28;20052;-86
2021/03/31 02:57:10;;;;;;;8.43;4.70;;;8.40;53.40;;;;;;5055419;28;20049;-87
2021/03/31 02:59:40;;;;;;;9.95;5.32;;;8.30;53.30;;;;;;5041432;28;20025;-86
2021/03/31 03:02:06;;;;;;;9.70;5.00;;;8.30;53.50;;;;;;5043853;28;20030;-86
2021/03/31 03:04:32;;;;;;;9.55;5.00;;;8.20;53.40;;;;;;5037947;28;20084;-86
2021/03/31 03:06:57;;;;;;;9.13;4.95;;;8.10;53.50;;;;;;5036580;28;20021;-87
2021/03/31 03:09:23;;;;;;;9.23;5.00;;;8.10;53.80;;;;;;5041277;28;20037;-86
2021/03/31 03:11:51;;;;;;;8.40;5.25;;;8.20;54.20;;;;;;5041988;28;20028;-86
2021/03/31 03:14:18;;;;;;;6.93;4.65;;;8.20;54.30;;;;;;5039726;28;20045;-86
2021/03/31 03:16:44;;;;;;;6.88;4.80;;;8.20;54.40;;;;;;5043133;28;20026;-87
2021/03/31 03:19:11;;;;;;;7.43;5.20;;;8.20;54.40;;;;;;5044740;28;20103;-87
2021/03/31 03:21:38;;;;;;;8.93;4.63;;;8.20;54.70;;;;;;5046190;28;20167;-86
2021/03/31 03:24:05;;;;;;;10.10;4.70;;;8.30;54.60;;;;;;5042559;28;20041;-89
2021/03/31 03:26:34;;;;;;;8.85;5.28;;;8.30;54.50;;;;;;5046000;28;20038;-86
2021/03/31 03:29:00;;;;;;;8.00;4.95;;;8.30;54.30;;;;;;5043870;28;20025;-87
2021/03/31 03:31:26;;;;;;;8.07;4.68;;;8.30;54.30;;;;;;5039232;28;20036;-86
2021/03/31 03:33:52;;;;;;;10.02;4.80;;;8.20;54.30;;;;;;5043190;28;20018;-86
2021/03/31 03:36:17;;;;;;;9.32;5.20;;;8.20;54.40;;;;;;5039329;28;20049;-86
2021/03/31 03:38:43;;;;;;;8.55;4.68;;;8.10;54.40;;;;;;5036202;28;20026;-87
2021/03/31 03:41:12;;;;;;;9.65;5.20;;;8.10;54.40;;;;;;5035825;28;20025;-87
2021/03/31 03:43:40;;;;;;;8.45;5.00;;;8.00;54.40;;;;;;5037878;28;20038;-87
2021/03/31 03:46:08;;;;;;;9.02;4.93;;;8.00;54.30;;;;;;5036980;28;20043;-88
2021/03/31 03:48:34;;;;;;;8.75;4.85;;;7.90;54.30;;;;;;5038957;28;20036;-86
2021/03/31 03:51:00;;;;;;;6.25;4.43;;;7.80;54.40;;;;;;5038875;28;20018;-87
2021/03/31 03:53:29;;;;;;;9.45;5.38;;;7.70;54.50;;;;;;5042770;28;20550;-86
2021/03/31 03:55:55;;;;;;;10.48;4.53;;;7.60;54.50;;;;;;5046134;28;20049;-87
2021/03/31 03:58:21;;;;;;;9.65;4.78;;;7.50;54.70;;;;;;5039510;28;20026;-84
2021/03/31 04:00:47;;;;;;;8.68;5.18;;;7.50;54.90;;;;;;5036615;28;20032;-87
2021/03/31 04:03:12;;;;;;;9.18;4.63;;;7.50;54.90;;;;;;5035993;28;20124;-87
2021/03/31 04:05:38;;;;;;;9.55;5.00;;;7.40;54.80;;;;;;5035908;28;20368;-87
2021/03/31 04:08:04;;;;;;;10.38;5.05;;;7.40;54.90;;;;;;5037602;28;20029;-87
2021/03/31 04:10:30;;;;;;;9.43;5.03;;;7.40;55.00;;;;;;5033718;28;20041;-88
2021/03/31 04:12:58;;;;;;;6.80;4.75;;;7.40;55.20;;;;;;5037305;28;20025;-87
2021/03/31 04:15:25;;;;;;;8.10;4.75;;;7.40;55.40;;;;;;5035304;28;20478;-87
2021/03/31 04:17:52;;;;;;;7.55;4.72;;;7.40;55.70;;;;;;5036695;28;20029;-87
2021/03/31 04:20:22;;;;;;;12.45;4.95;;;7.50;55.70;;;;;;5035917;28;20017;-87
2021/03/31 04:22:48;;;;;;;8.23;5.35;;;7.50;55.80;;;;;;5029896;28;20104;-87
2021/03/31 04:25:16;;;;;;;7.75;4.90;;;7.60;55.40;;;;;;5034654;28;20071;-87
2021/03/31 04:27:45;;;;;;;9.13;5.07;;;7.60;55.30;;;;;;5029064;28;20040;-87
2021/03/31 04:30:12;;;;;;;8.90;5.07;;;7.50;55.20;;;;;;5036103;28;20029;-86
2021/03/31 04:32:44;;;;;;;9.85;5.25;;;7.40;55.20;;;;;;5035499;28;20061;-87
2021/03/31 04:35:10;;;;;;;10.73;4.85;;;7.40;55.20;;;;;;5032743;28;20021;-88
2021/03/31 04:37:36;;;;;;;9.30;5.35;;;7.30;55.30;;;;;;5036214;28;20028;-87
2021/03/31 04:40:10;;;;;;;6.85;4.57;;;7.30;55.50;;;;;;5042546;28;20026;-87
2021/03/31 04:42:36;;;;;;;12.02;5.20;;;7.20;55.60;;;;;;5034854;28;20018;-85
2021/03/31 04:45:06;;;;;;;9.43;5.35;;;7.20;55.40;;;;;;5033332;28;20034;-87
2021/03/31 04:47:33;;;;;;;8.23;4.97;;;7.10;55.50;;;;;;5038917;28;20029;-88
2021/03/31 04:49:58;;;;;;;8.45;5.32;;;7.10;55.60;;;;;;5038165;28;20022;-87
2021/03/31 04:52:24;;;;;;;7.60;5.25;;;7.00;55.70;;;;;;5040330;28;20112;-86
2021/03/31 04:54:50;;;;;;;11.68;5.35;;;7.00;55.70;;;;;;5050871;28;20025;-86
2021/03/31 04:57:15;;;;;;;7.55;4.90;;;7.00;55.70;;;;;;5042610;28;20124;-87
2021/03/31 04:59:41;;;;;;;8.27;5.15;;;7.00;56.00;;;;;;5041376;28;20034;-87
2021/03/31 05:02:06;;;;;;;9.50;6.00;;;7.10;56.20;;;;;;5037669;28;20035;-87
2021/03/31 05:04:32;;;;;;;10.02;5.72;;;7.10;56.40;;;;;;5034263;28;20072;-87
2021/03/31 05:06:57;;;;;;;13.10;6.25;;;7.20;56.30;;;;;;5037266;28;20026;-86
2021/03/31 05:09:23;;;;;;;11.10;5.68;;;7.20;56.00;;;;;;5036814;28;20423;-88
2021/03/31 05:11:48;;;;;;;13.98;6.07;;;7.20;56.20;;;;;;5042708;28;20048;-88
2021/03/31 05:14:14;;;;;;;9.85;5.57;;;7.20;56.00;;;;;;5040849;28;20028;-89
2021/03/31 05:16:40;;;;;;;9.05;5.90;;;7.20;55.80;;;;;;5036275;28;20484;-88
2021/03/31 05:19:05;;;;;;;11.93;5.55;;;7.10;55.80;;;;;;5036780;28;20014;-89
2021/03/31 05:23:59;;;;;;;12.55;6.13;;;7.00;55.90;;;;;;5071788;28;20419;-68
2021/03/31 05:26:24;;;;;;;15.82;6.07;;;6.90;56.10;;;;;;5055830;28;20025;-68
2021/03/31 05:28:50;;;;;;;9.88;5.63;;;6.80;56.10;;;;;;5050803;28;20032;-68
2021/03/31 05:31:16;;;;;;;12.02;5.68;;;6.80;56.30;;;;;;5036859;28;20032;-69
2021/03/31 05:33:41;;;;;;;11.23;6.20;;;6.70;56.30;;;;;;5047695;28;20082;-68
2021/03/31 05:36:08;;;;;;;11.13;6.00;;;6.70;56.30;;;;;;5056812;28;20036;-68
2021/03/31 05:38:34;;;;;;;11.88;5.38;;;6.70;56.40;;;;;;5055372;28;20396;-68
2021/03/31 05:41:00;;;;;;;8.63;4.97;;;6.70;56.60;;;;;;5056266;28;20020;-68
2021/03/31 05:43:26;;;;;;;10.82;5.85;;;6.80;56.80;;;;;;5055842;28;20042;-68
2021/03/31 05:45:55;;;;;;;12.82;5.55;;;6.80;56.90;;;;;;5054148;28;20532;-67
2021/03/31 05:48:22;;;;;;;11.77;5.90;;;6.90;57.00;;;;;;5054572;28;20396;-67
2021/03/31 05:50:48;;;;;;;10.85;5.95;;;7.00;57.00;;;;;;5059796;28;20025;-68
2021/03/31 05:53:14;;;;;;;9.70;5.60;;;7.00;56.90;;;;;;5056031;28;20472;-67
2021/03/31 05:55:39;;;;;;;9.32;5.38;;;7.10;56.80;;;;;;5062159;28;20070;-68
2021/03/31 05:58:05;;;;;;;15.00;5.25;;;7.20;57.00;;;;;;5056436;28;20028;-68
2021/03/31 06:00:33;;;;;;;10.75;5.32;;;7.30;56.70;;;;;;5055845;28;20033;-68
2021/03/31 06:03:03;;;;;;;9.77;5.13;;;7.20;56.60;;;;;;5055965;28;20036;-68
2021/03/31 06:05:31;;;;;;;9.77;5.47;;;7.20;56.80;;;;;;5054909;28;20376;-68
2021/03/31 06:07:56;;;;;;;10.43;5.88;;;7.20;57.00;;;;;;5055981;28;20025;-68
2021/03/31 06:10:28;;;;;;;14.80;5.95;;;7.40;57.20;;;;;;5055484;28;20334;-68
2021/03/31 06:13:06;;;;;;;14.63;5.53;;;7.40;57.10;;;;;;5055863;28;20480;-68
2021/03/31 06:15:38;;;;;;;12.52;6.20;;;7.40;56.80;;;;;;5055361;28;20032;-68
2021/03/31 06:18:11;;;;;;;11.32;6.00;;;7.40;56.60;;;;;;5055437;28;20032;-68
2021/03/31 06:20:50;;;;;;;11.20;5.72;;;7.30;56.60;;;;;;5050869;28;20107;-67
2021/03/31 06:23:49;;;;;;;14.43;5.70;;;7.30;56.90;;;;;;5054197;28;20067;-67
2021/03/31 06:26:23;;;;;;;10.48;5.97;;;7.20;57.00;;;;;;5049656;28;20027;-67
2021/03/31 06:29:09;;;;;;;12.77;5.75;;;7.20;57.30;;;;;;5054927;28;20480;-66
2021/03/31 06:31:40;;;;;;;12.10;5.78;;;7.30;57.40;;;;;;5055356;28;20115;-67
2021/03/31 06:34:09;;;;;;;10.65;5.72;;;7.40;57.30;;;;;;5055329;28;20388;-68
2021/03/31 06:36:42;;;;;;;11.57;5.72;;;7.50;57.10;;;;;;5054881;28;20117;-67
2021/03/31 06:39:19;;;;;;;10.50;5.80;;;7.50;57.50;;;;;;5055242;28;20456;-67
2021/03/31 06:41:56;;;;;;;10.40;6.00;;;7.70;57.30;;;;;;5055229;28;20081;-67
2021/03/31 06:45:20;;;;;;;10.52;6.13;;;7.80;57.20;;;;;;5054804;28;20025;-66
2021/03/31 06:47:34;;;;;;;13.20;5.88;;;8.00;57.20;;;;;;5061499;28;20032;-66
2021/03/31 06:50:00;;;;;;;10.98;6.15;;;8.30;57.00;;;;;;5054668;28;20063;-67
2021/03/31 06:52:26;;;;;;;13.57;6.03;;;8.50;56.90;;;;;;5054424;28;20029;-66
2021/03/31 06:54:59;;;;;;;9.85;6.18;;;8.80;56.80;;;;;;5058330;28;20043;-66
2021/03/31 06:57:28;;;;;;;11.18;6.10;;;9.10;56.70;;;;;;5054433;28;20423;-67
2021/03/31 07:00:09;;;;;;;10.55;5.57;;;9.30;56.60;;;;;;5054014;28;20044;-66
2021/03/31 07:02:36;;;;;;;11.65;6.13;;;9.50;56.50;;;;;;5052164;28;20486;-66
2021/03/31 07:05:04;;;;;;;15.60;6.28;;;9.80;56.30;;;;;;5053811;28;20085;-65
2021/03/31 07:07:35;;;;;;;13.35;5.85;;;10.00;56.00;;;;;;5055238;28;20040;-66
2021/03/31 07:10:18;;;;;;;9.27;5.55;;;10.30;55.80;;;;;;5054602;28;20031;-66
2021/03/31 07:12:49;;;;;;;12.57;6.25;;;10.50;55.30;;;;;;5056434;28;20028;-66
2021/03/31 07:15:17;;;;;;;12.07;6.10;;;10.70;55.10;;;;;;5053909;28;20031;-68
2021/03/31 07:17:47;;;;;;;11.48;5.85;;;10.80;54.90;;;;;;5053939;28;20384;-66
2021/03/31 07:20:13;;;;;;;12.02;6.35;;;10.90;54.90;;;;;;5054135;28;20016;-65
2021/03/31 07:22:39;;;;;;;13.43;6.45;;;11.00;54.90;;;;;;5055029;28;20032;-65
2021/03/31 07:25:07;;;;;;;13.77;6.32;;;11.10;55.00;;;;;;5053767;28;20476;-66
2021/03/31 07:27:34;;;;;;;10.38;5.65;;;11.30;55.10;;;;;;5054407;28;20020;-66
2021/03/31 07:30:06;;;;;;;15.98;5.82;;;11.30;55.00;;;;;;5057278;28;20023;-66
2021/03/31 07:32:51;;;;;;;9.40;6.20;;;11.40;55.00;;;;;;5054660;28;20059;-67
2021/03/31 07:35:19;;;;;;;12.90;6.30;;;11.50;55.00;;;;;;5053093;28;20023;-67
2021/03/31 07:37:46;;;;;;;10.20;6.22;;;11.60;54.80;;;;;;5054052;28;20028;-67
2021/03/31 07:40:14;;;;;;;11.27;6.38;;;11.80;54.70;;;;;;5052566;28;20032;-67
2021/03/31 07:43:08;;;;;;;11.10;6.07;;;12.10;54.40;;;;;;5053135;28;20036;-67
2021/03/31 07:45:55;;;;;;;11.52;6.30;;;12.50;54.00;;;;;;5049667;28;20450;-67
2021/03/31 07:48:22;;;;;;;15.30;6.07;;;13.20;53.70;;;;;;5053802;28;20020;-67
2021/03/31 07:50:48;;;;;;;12.40;6.30;;;13.60;52.90;;;;;;5053834;28;20093;-67
2021/03/31 07:53:14;;;;;;;11.43;6.40;;;13.90;52.40;;;;;;5053868;28;20106;-67
2021/03/31 07:55:47;;;;;;;12.32;6.60;;;14.40;52.10;;;;;;5060448;28;20024;-67
2021/03/31 07:58:13;;;;;;;11.70;6.05;;;14.70;51.70;;;;;;5054188;28;20516;-67
2021/03/31 08:01:07;;;;;;;17.83;7.32;;;15.00;51.40;;;;;;5053209;28;20342;-68
2021/03/31 08:03:38;;;;;;;11.70;6.38;;;15.40;51.40;;;;;;5049278;28;20376;-67
2021/03/31 08:06:12;;;;;;;14.68;6.80;;;15.70;50.80;;;;;;5053785;28;20020;-67
2021/03/31 08:08:59;;;;;;;12.57;7.10;;;16.00;50.70;;;;;;5053976;28;20058;-67
2021/03/31 08:11:43;;;;;;;15.10;7.22;;;16.30;50.20;;;;;;5053577;28;20012;-67
2021/03/31 08:14:12;;;;;;;14.48;7.35;;;16.50;49.70;;;;;;5053576;28;20029;-67
2021/03/31 08:16:50;;;;;;;16.05;7.82;;;16.70;49.10;;;;;;5054573;28;20111;-68
2021/03/31 08:19:21;;;;;;;19.58;7.63;;;16.80;48.00;;;;;;5055815;28;20032;-69
2021/03/31 08:21:49;;;;;;;13.93;7.60;;;17.20;48.00;;;;;;5054548;28;20051;-69
2021/03/31 08:24:16;;;;;;;17.98;7.53;;;17.60;47.90;;;;;;5052963;28;20036;-68
2021/03/31 08:26:57;;;;;;;20.33;7.57;;;18.30;47.60;;;;;;5053729;28;20028;-68
2021/03/31 08:29:23;;;;;;;13.82;7.40;;;19.00;47.20;;;;;;5060358;28;20119;-68
2021/03/31 08:32:06;;;;;;;17.60;6.90;;;19.70;46.30;;;;;;5060377;28;20028;-68
2021/03/31 08:34:34;;;;;;;25.70;8.23;;;20.20;45.40;;;;;;5053031;28;20039;-67
2021/03/31 08:37:02;;;;;;;16.52;8.18;;;20.60;44.00;;;;;;5053504;28;20025;-69
2021/03/31 08:39:28;;;;;;;19.10;9.35;;;21.00;43.70;;;;;;5053385;28;20074;-68
2021/03/31 08:41:57;;;;;;;18.45;8.30;;;21.50;43.20;;;;;;5053256;28;20060;-68
2021/03/31 08:44:34;;;;;;;18.20;7.70;;;22.10;42.50;;;;;;5053454;28;20396;-68
2021/03/31 08:47:14;;;;;;;24.30;8.25;;;22.70;41.50;;;;;;5053338;28;20044;-68
2021/03/31 08:49:41;;;;;;;26.45;7.97;;;23.40;40.50;;;;;;5053394;28;20048;-68
2021/03/31 08:52:10;;;;;;;13.60;7.25;;;23.90;39.70;;;;;;5052934;28;20028;-68
2021/03/31 08:54:44;;;;;;;13.88;7.25;;;24.50;38.80;;;;;;5061131;28;20020;-67
2021/03/31 08:57:15;;;;;;;19.92;8.13;;;25.10;38.10;;;;;;5053474;28;20033;-68
2021/03/31 08:59:44;;;;;;;18.38;8.38;;;25.30;36.20;;;;;;5053323;28;20024;-69
2021/03/31 09:02:10;;;;;;;15.48;7.80;;;25.50;35.90;;;;;;5052539;28;20391;-68
2021/03/31 09:04:36;;;;;;;24.45;8.93;;;25.60;35.00;;;;;;5052734;28;20054;-69
2021/03/31 09:07:05;;;;;;;20.08;8.48;;;25.70;34.60;;;;;;5053259;28;20456;-69
2021/03/31 09:09:41;;;;;;;13.40;7.68;;;26.00;34.30;;;;;;5053308;28;20016;-68
2021/03/31 09:12:09;;;;;;;16.38;8.32;;;26.60;34.30;;;;;;5053117;28;20078;-68
2021/03/31 09:14:38;;;;;;;16.77;8.45;;;27.20;33.40;;;;;;5052961;28;20080;-69
2021/03/31 09:17:06;;;;;;;20.88;8.07;;;27.50;33.20;;;;;;5052399;28;20404;-69
2021/03/31 09:19:35;;;;;;;22.20;8.13;;;28.00;32.70;;;;;;5053320;28;20490;-69
2021/03/31 09:22:12;;;;;;;18.95;8.38;;;28.30;31.90;;;;;;5055543;28;20048;-68
2021/03/31 09:24:43;;;;;;;14.35;8.15;;;28.40;31.10;;;;;;5060773;28;20143;-67
2021/03/31 09:27:11;;;;;;;19.33;8.10;;;28.30;31.10;;;;;;5066807;28;20024;-68
2021/03/31 09:29:42;;;;;;;13.32;7.45;;;28.30;30.40;;;;;;5069695;28;20139;-67
2021/03/31 09:32:10;;;;;;;11.75;7.20;;;28.40;30.70;;;;;;5053924;28;20418;-67
2021/03/31 09:34:36;;;;;;;13.32;7.47;;;28.70;31.00;;;;;;5050929;28;20038;-65
2021/03/31 09:37:03;;;;;;;12.38;7.25;;;28.80;30.20;;;;;;5070319;28;20024;-65
2021/03/31 09:39:47;;;;;;;11.95;7.38;;;28.80;30.00;;;;;;5053379;28;20039;-65
2021/03/31 09:42:22;;;;;;;16.83;7.90;;;28.50;30.00;;;;;;5048904;28;20036;-65
2021/03/31 09:44:49;;;;;;;13.43;7.85;;;28.20;30.50;;;;;;5056323;28;20035;-64
2021/03/31 09:47:16;;;;;;;15.43;7.65;;;27.70;30.40;;;;;;5055233;28;20032;-65
2021/03/31 09:49:45;;;;;;;19.00;7.05;;;27.40;30.90;;;;;;5064652;28;20413;-65
2021/03/31 09:52:12;;;;;;;17.85;7.05;;;26.90;31.00;;;;;;5056551;28;20357;-66
2021/03/31 09:54:46;;;;;;;11.35;6.80;;;26.30;30.80;;;;;;5057289;28;20574;-66
2021/03/31 09:57:14;;;;;;;12.93;6.65;;;25.90;31.90;;;;;;5058615;28;20032;-66
2021/03/31 09:59:41;;;;;;;14.02;7.55;;;25.50;32.50;;;;;;5055763;28;20028;-66
2021/03/31 10:02:13;;;;;;;13.20;6.47;;;25.30;33.00;;;;;;5053686;28;20111;-66
2021/03/31 10:04:41;;;;;;;12.65;6.85;;;25.00;33.50;;;;;;5066269;28;20028;-66
2021/03/31 10:07:18;;;;;;;13.07;6.70;;;24.70;33.70;;;;;;5056089;28;20058;-66
2021/03/31 10:09:48;;;;;;;17.25;6.53;;;24.40;33.10;;;;;;5056248;28;20110;-66
2021/03/31 10:12:22;;;;;;;10.70;6.30;;;24.40;33.50;;;;;;5074314;28;20052;-66
2021/03/31 10:14:52;;;;;;;9.23;6.20;;;24.40;33.40;;;;;;5055587;28;20035;-66
2021/03/31 10:17:19;;;;;;;14.45;7.65;;;24.50;33.70;;;;;;5055361;28;20549;-66
2021/03/31 10:19:45;;;;;;;14.95;6.45;;;24.70;33.40;;;;;;5061610;28;20119;-66
2021/03/31 10:22:12;;;;;;;15.38;6.32;;;24.60;33.50;;;;;;5063790;28;20028;-67
2021/03/31 10:24:46;;;;;;;13.25;6.72;;;24.80;34.00;;;;;;5054469;28;20050;-66
2021/03/31 10:27:14;;;;;;;13.13;6.97;;;24.90;33.70;;;;;;5055528;28;20055;-66
2021/03/31 10:29:48;;;;;;;15.07;7.55;;;25.10;33.50;;;;;;5055663;28;20051;-66
2021/03/31 10:32:17;;;;;;;15.07;7.68;;;25.10;32.90;;;;;;5055181;28;20142;-67
2021/03/31 10:34:48;;;;;;;13.18;7.72;;;25.10;33.30;;;;;;5055359;28;20392;-66
2021/03/31 10:37:26;;;;;;;14.38;8.60;;;25.20;32.80;;;;;;5055687;28;20108;-66
2021/03/31 10:48:28;;;;;;;31.10;15.05;;;24.90;31.30;;;;;;5073540;28;20020;-66
2021/03/31 10:51:45;;;;;;;8.77;5.68;;;25.00;31.80;;;;;;5053946;28;20449;-66
2021/03/31 10:54:27;;;;;;;14.00;7.38;;;25.10;31.10;;;;;;5064827;28;20044;-66
2021/03/31 10:56:35;;;;;;;12.05;6.55;;;25.10;30.30;;;;;;5070161;28;20037;-66
2021/03/31 10:59:01;;;;;;;13.30;7.07;;;25.20;30.30;;;;;;5054976;28;20478;-66
2021/03/31 11:01:27;;;;;;;10.68;6.85;;;25.50;30.10;;;;;;5054856;28;20036;-66
2021/03/31 11:03:53;;;;;;;11.80;6.85;;;25.60;29.90;;;;;;5054613;28;20044;-66
2021/03/31 11:06:21;;;;;;;13.98;6.72;;;25.70;30.70;;;;;;5055000;28;20026;-66
2021/03/31 11:08:47;;;;;;;12.52;6.47;;;25.80;30.30;;;;;;5054753;28;20028;-66
2021/03/31 11:11:12;;;;;;;13.45;6.85;;;25.90;30.10;;;;;;5054619;28;20059;-66
2021/03/31 11:13:39;;;;;;;12.80;6.85;;;26.00;29.70;;;;;;5054788;28;20443;-66
2021/03/31 11:16:08;;;;;;;15.07;6.75;;;25.90;30.00;;;;;;5054169;28;20028;-66
2021/03/31 11:26:37;;;;;;;9.70;6.13;;;25.90;29.00;;;;;;5072529;28;20491;-66
2021/03/31 11:29:03;;;;;;;11.25;6.25;;;25.80;29.60;;;;;;5053915;28;20104;-67
2021/03/31 11:31:28;;;;;;;9.57;6.28;;;25.90;29.90;;;;;;5053256;28;20021;-66
2021/03/31 11:33:54;;;;;;;15.45;6.50;;;26.10;30.70;;;;;;5053985;28;20407;-66
2021/03/31 11:36:20;;;;;;;12.48;6.88;;;26.30;30.20;;;;;;5054369;28;20024;-66
2021/03/31 11:38:46;;;;;;;8.65;5.57;;;26.40;30.60;;;;;;5052861;28;20083;-67
2021/03/31 11:43:42;;;;;;;10.00;4.43;;;26.40;28.20;;;;;;5008602;28;20034;-69
2021/03/31 11:46:08;;;;;;;12.32;6.00;;;26.20;28.90;;;;;;5001454;28;20577;-68
2021/03/31 11:48:34;;;;;;;8.30;4.82;;;26.10;27.50;;;;;;5002602;28;20467;-67
2021/03/31 11:51:00;;;;;;;8.10;4.65;;;26.00;28.40;;;;;;4977495;28;20037;-68
2021/03/31 11:53:29;;;;;;;13.98;5.93;;;25.90;28.80;;;;;;4975775;28;20041;-68
2021/03/31 11:55:59;;;;;;;14.68;6.47;;;26.00;29.20;;;;;;4974871;28;20084;-68
2021/03/31 11:58:25;;;;;;;11.77;6.30;;;26.10;29.20;;;;;;4963686;28;20143;-68
2021/03/31 12:00:51;;;;;;;11.50;5.38;;;26.30;28.60;;;;;;4955782;28;20034;-68
2021/03/31 12:03:18;;;;;;;13.93;5.50;;;26.30;28.90;;;;;;4988069;28;20068;-68
2021/03/31 12:05:44;;;;;;;15.85;5.47;;;26.40;28.40;;;;;;4997376;28;20386;-68
2021/03/31 12:08:10;;;;;;;11.18;5.80;;;26.50;29.00;;;;;;4974855;28;20035;-68
2021/03/31 12:10:35;;;;;;;13.38;5.85;;;26.60;28.60;;;;;;4981986;28;20026;-68
2021/03/31 12:13:01;;;;;;;10.88;4.90;;;26.60;28.30;;;;;;4982403;28;20548;-68
2021/03/31 12:15:27;;;;;;;8.07;4.32;;;26.70;29.30;;;;;;4965806;28;20037;-68
2021/03/31 12:17:54;;;;;;;9.75;4.80;;;26.70;28.80;;;;;;4972129;28;20054;-68
2021/03/31 12:20:19;;;;;;;10.88;4.45;;;26.80;28.60;;;;;;4974762;28;20339;-68
2021/03/31 12:22:45;;;;;;;8.93;5.72;;;26.80;29.20;;;;;;4974804;28;20025;-68
2021/03/31 12:25:12;;;;;;;10.27;4.78;;;27.00;29.30;;;;;;5010161;28;20490;-68
2021/03/31 12:27:38;;;;;;;8.70;4.22;;;27.20;29.50;;;;;;4989093;28;20460;-67
2021/03/31 12:30:07;;;;;;;7.10;4.20;;;27.20;28.10;;;;;;4994386;28;20022;-68
2021/03/31 12:32:33;;;;;;;9.95;3.83;;;27.20;27.00;;;;;;4994344;28;20109;-68
2021/03/31 12:34:59;;;;;;;8.68;4.00;;;27.10;28.00;;;;;;4981953;28;20114;-68
2021/03/31 12:37:25;;;;;;;9.23;3.80;;;27.20;27.90;;;;;;5006710;28;20034;-68
2021/03/31 12:39:51;;;;;;;5.82;3.63;;;27.30;27.50;;;;;;4974935;28;20084;-68
2021/03/31 12:42:17;;;;;;;5.20;3.00;;;27.30;27.50;;;;;;4968202;28;20031;-68
2021/03/31 12:44:43;;;;;;;22.63;4.15;;;27.40;27.00;;;;;;4962029;28;20031;-68
2021/03/31 12:47:11;;;;;;;8.38;4.45;;;27.50;27.30;;;;;;4955177;28;20027;-68
2021/03/31 12:49:37;;;;;;;6.95;4.65;;;27.60;26.70;;;;;;4951844;28;20185;-68
2021/03/31 12:52:07;;;;;;;7.22;4.13;;;27.60;27.30;;;;;;4963258;28;20518;-68
2021/03/31 12:57:00;;;;;;;6.70;3.45;;;27.90;26.40;;;;;;4972582;28;20027;-68
2021/03/31 12:59:25;;;;;;;6.78;4.25;;;27.80;26.20;;;;;;4955650;28;20102;-68
2021/03/31 13:01:51;;;;;;;10.27;3.85;;;27.80;26.20;;;;;;4955237;28;20443;-68
2021/03/31 13:04:18;;;;;;;5.95;3.20;;;27.80;26.50;;;;;;4954716;28;20406;-68
2021/03/31 13:06:44;;;;;;;8.73;3.05;;;27.90;26.10;;;;;;4954855;28;20023;-68
2021/03/31 13:09:10;;;;;;;8.15;3.33;;;27.90;26.40;;;;;;4952049;28;20034;-68
2021/03/31 13:11:37;;;;;;;4.20;2.95;;;28.00;26.60;;;;;;4953320;28;20114;-68
2021/03/31 13:24:45;;;;;;;4.50;2.60;;;28.60;26.10;;;;;;4978412;28;20078;-68
2021/03/31 13:34:53;;;;;;;3.17;2.35;;;29.00;26.00;;;;;;4975684;28;20027;-68
2021/03/31 13:37:24;;;;;;;5.65;2.65;;;29.00;25.40;;;;;;4958581;28;20528;-68
2021/03/31 13:39:52;;;;;;;5.40;2.65;;;29.00;25.30;;;;;;4958576;28;20039;-68